| time (UTC) | temp F | wind direction | speed MPH | gust MPH | rain 1hr in | rain 24hr in | rain mn in | humidity % | barometer mb |
| 20260903015503 | 67 | 185 | 3.0 | 7.0 | 0.01 | 0.95 | 0.95 | 63 | 1015.8 |
| 20260903015003 | 67 | 183 | 3.0 | 7.0 | 0.02 | 0.95 | 0.95 | 63 | 1015.7 |
| 20260903014712 | 67 | 193 | 3.0 | 7.0 | 0.02 | 0.95 | 0.95 | 63 | 1015.7 |
| 20260903014213 | 67 | 212 | 2.0 | 7.0 | 0.03 | 0.95 | 0.95 | 63 | 1016.0 |
| 20260903013714 | 67 | 218 | 1.0 | 5.0 | 0.04 | 0.95 | 0.95 | 62 | 1016.3 |
| 20260903013003 | 67 | 245 | 1.0 | 4.0 | 0.08 | 0.95 | 0.95 | 62 | 1015.6 |
| 20260903012503 | 67 | 264 | 1.0 | 4.0 | 0.13 | 0.95 | 0.95 | 62 | 1015.2 |
| 20260903012003 | 67 | 263 | 2.0 | 7.0 | 0.27 | 0.95 | 0.95 | 62 | 1015.2 |
| 20260903011503 | 67 | 250 | 3.0 | 8.0 | 0.32 | 0.94 | 0.94 | 62 | 1015.8 |
| 20260903011003 | 67 | 212 | 4.0 | 12.0 | 0.32 | 0.94 | 0.94 | 62 | 1016.1 |
| 20260903010503 | 67 | 203 | 4.0 | 12.0 | 0.32 | 0.94 | 0.94 | 62 | 1016.2 |
| 20260903010003 | 67 | 201 | 2.0 | 9.0 | 0.32 | 0.94 | 0.94 | 62 | 1016.5 |
| 20260903005503 | 67 | 186 | 2.0 | 6.0 | 0.32 | 0.94 | 0.94 | 61 | 1016.1 |
| 20260903005003 | 67 | 188 | 4.0 | 11.0 | 0.31 | 0.93 | 0.93 | 61 | 1016.1 |
| 20260903004503 | 68 | 180 | 4.0 | 11.0 | 0.31 | 0.93 | 0.93 | 61 | 1016.3 |
| 20260903004213 | 68 | 180 | 4.0 | 11.0 | 0.30 | 0.92 | 0.92 | 61 | 1016.4 |
| 20260903003714 | 68 | 192 | 3.0 | 9.0 | 0.29 | 0.91 | 0.91 | 61 | 1016.4 |
| 20260903003003 | 69 | 223 | 5.0 | 18.0 | 0.25 | 0.87 | 0.87 | 60 | 1016.8 |
| 20260903002503 | 70 | 272 | 8.0 | 23.0 | 0.20 | 0.82 | 0.82 | 57 | 1016.9 |
| 20260903002213 | 72 | 284 | 7.0 | 23.0 | 0.13 | 0.75 | 0.75 | 55 | 1017.3 |
| 20260903001503 | 74 | 235 | 3.0 | 8.0 | 0.00 | 0.62 | 0.62 | 53 | 1015.1 |
| 20260903001003 | 75 | 196 | 4.0 | 9.0 | 0.00 | 0.62 | 0.62 | 53 | 1014.0 |
| 20260903000503 | 75 | 190 | 4.0 | 9.0 | 0.00 | 0.62 | 0.62 | 54 | 1014.2 |
| 20260903000003 | 75 | 181 | 3.0 | 8.0 | 0.00 | 0.62 | 0.62 | 55 | 1013.7 |
| 20260902235503 | 75 | 157 | 1.0 | 8.0 | 0.00 | 0.62 | 0.62 | 57 | 1013.2 |
| 20260902235003 | 75 | 126 | 2.0 | 8.0 | 0.00 | 0.62 | 0.62 | 59 | 1013.6 |
| 20260902234503 | 75 | 122 | 3.0 | 8.0 | 0.00 | 0.62 | 0.62 | 59 | 1013.4 |
| 20260902234003 | 76 | 131 | 4.0 | 8.0 | 0.00 | 0.62 | 0.62 | 59 | 1013.2 |
| 20260902233503 | 76 | 141 | 4.0 | 8.0 | 0.00 | 0.62 | 0.62 | 59 | 1013.4 |
| 20260902233003 | 75 | 150 | 3.0 | 8.0 | 0.00 | 0.62 | 0.62 | 59 | 1013.6 |
| 20260902232503 | 75 | 159 | 1.0 | 6.0 | 0.00 | 0.62 | 0.62 | 60 | 1014.1 |
| 20260902232003 | 75 | 26 | 0.0 | 3.0 | 0.00 | 0.62 | 0.62 | 60 | 1014.3 |
| 20260902231503 | 75 | 274 | 0.0 | 2.0 | 0.00 | 0.62 | 0.62 | 60 | 1014.2 |
| 20260902231003 | 75 | 274 | 1.0 | 3.0 | 0.00 | 0.62 | 0.62 | 60 | 1014.0 |
| 20260902230503 | 76 | 275 | 1.0 | 4.0 | 0.00 | 0.62 | 0.62 | 60 | 1014.1 |
| 20260902230003 | 76 | 269 | 2.0 | 6.0 | 0.00 | 0.62 | 0.62 | 60 | 1014.0 |
| 20260902225713 | 76 | 265 | 2.0 | 6.0 | 0.00 | 0.62 | 0.62 | 60 | 1014.0 |
| 20260902225003 | 76 | 258 | 2.0 | 4.0 | 0.00 | 0.62 | 0.62 | 60 | 1013.9 |
| 20260902224503 | 76 | 258 | 2.0 | 3.0 | 0.00 | 0.62 | 0.62 | 59 | 1013.8 |
| 20260902224003 | 77 | 250 | 2.0 | 4.0 | 0.00 | 0.62 | 0.62 | 59 | 1014.1 |
| 20260902223503 | 77 | 202 | 2.0 | 6.0 | 0.00 | 0.62 | 0.62 | 58 | 1014.2 |
| 20260902223003 | 78 | 192 | 2.0 | 6.0 | 0.00 | 0.62 | 0.62 | 56 | 1013.7 |
| 20260902222503 | 78 | 191 | 3.0 | 6.0 | 0.00 | 0.62 | 0.62 | 56 | 1013.7 |
| 20260902222003 | 78 | 177 | 3.0 | 6.0 | 0.00 | 0.62 | 0.62 | 56 | 1013.6 |
| 20260902221503 | 77 | 180 | 2.0 | 6.0 | 0.00 | 0.62 | 0.62 | 57 | 1013.6 |
| 20260902221003 | 78 | 190 | 0.0 | 3.0 | 0.00 | 0.62 | 0.62 | 57 | 1013.7 |
| 20260902220503 | 78 | 211 | 0.0 | 2.0 | 0.00 | 0.62 | 0.62 | 57 | 1013.7 |
| 20260902220003 | 79 | 211 | 1.0 | 2.0 | 0.00 | 0.62 | 0.62 | 56 | 1014.3 |
| 20260902215503 | 79 | 211 | 0.0 | 2.0 | 0.00 | 0.62 | 0.62 | 56 | 1014.2 |
| 20260902215214 | 80 | 211 | 0.0 | 2.0 | 0.00 | 0.62 | 0.62 | 55 | 1014.1 |
| 20260902214503 | 80 | 211 | 0.0 | 2.0 | 0.00 | 0.62 | 0.62 | 54 | 1013.6 |
| 20260902214003 | 81 | 187 | 0.0 | 2.0 | 0.00 | 0.62 | 0.62 | 53 | 1013.6 |
| 20260902213503 | 81 | 130 | 1.0 | 3.0 | 0.00 | 0.62 | 0.62 | 53 | 1013.8 |
| 20260902213003 | 81 | 125 | 2.0 | 5.0 | 0.00 | 0.62 | 0.62 | 51 | 1013.9 |
| 20260902212503 | 81 | 124 | 3.0 | 7.0 | 0.00 | 0.62 | 0.62 | 50 | 1013.9 |
| 20260902212003 | 81 | 128 | 3.0 | 7.0 | 0.00 | 0.62 | 0.62 | 50 | 1013.8 |
| 20260902211503 | 81 | 131 | 3.0 | 7.0 | 0.00 | 0.62 | 0.62 | 50 | 1013.9 |
| 20260902211003 | 81 | 142 | 3.0 | 7.0 | 0.00 | 0.62 | 0.62 | 50 | 1014.2 |
| 20260902210503 | 81 | 155 | 3.0 | 7.0 | 0.00 | 0.62 | 0.62 | 49 | 1014.4 |
| 20260902210003 | 81 | 166 | 3.0 | 7.0 | 0.00 | 0.62 | 0.62 | 49 | 1014.7 |
| 20260902205503 | 81 | 172 | 3.0 | 7.0 | 0.00 | 0.62 | 0.62 | 48 | 1014.8 |
| 20260902205003 | 81 | 158 | 3.0 | 8.0 | 0.00 | 0.62 | 0.62 | 48 | 1015.0 |
| 20260902204712 | 81 | 152 | 3.0 | 8.0 | 0.00 | 0.62 | 0.62 | 49 | 1015.0 |
| 20260902204003 | 81 | 171 | 4.0 | 8.0 | 0.00 | 0.62 | 0.62 | 48 | 1015.0 |
| 20260902203503 | 81 | 182 | 3.0 | 8.0 | 0.00 | 0.62 | 0.62 | 47 | 1015.0 |
| 20260902203003 | 82 | 228 | 1.0 | 6.0 | 0.00 | 0.62 | 0.62 | 48 | 1015.2 |
| 20260902202503 | 81 | 200 | 2.0 | 6.0 | 0.00 | 0.62 | 0.62 | 47 | 1015.5 |
| 20260902202003 | 82 | 220 | 2.0 | 6.0 | 0.00 | 0.62 | 0.62 | 47 | 1015.4 |
| 20260902201503 | 82 | 219 | 3.0 | 9.0 | 0.00 | 0.62 | 0.62 | 48 | 1015.6 |
| 20260902201003 | 82 | 170 | 4.0 | 10.0 | 0.00 | 0.62 | 0.62 | 48 | 1015.4 |
| 20260902200503 | 82 | 153 | 3.0 | 10.0 | 0.00 | 0.62 | 0.62 | 50 | 1015.2 |
| 20260902200003 | 81 | 184 | 3.0 | 8.0 | 0.00 | 0.62 | 0.62 | 50 | 1015.3 |
| 20260902195503 | 81 | 188 | 4.0 | 10.0 | 0.00 | 0.62 | 0.62 | 51 | 1015.4 |
| 20260902195003 | 81 | 174 | 5.0 | 11.0 | 0.00 | 0.62 | 0.62 | 49 | 1015.5 |
| 20260902194503 | 81 | 183 | 6.0 | 12.0 | 0.00 | 0.62 | 0.62 | 50 | 1015.7 |
| 20260902194003 | 80 | 190 | 6.0 | 12.0 | 0.00 | 0.62 | 0.62 | 50 | 1015.7 |
| 20260902193503 | 80 | 181 | 6.0 | 12.0 | 0.00 | 0.62 | 0.62 | 52 | 1015.7 |
| 20260902193003 | 80 | 189 | 5.0 | 12.0 | 0.00 | 0.62 | 0.62 | 52 | 1015.5 |
| 20260902192714 | 80 | 205 | 4.0 | 12.0 | 0.00 | 0.62 | 0.62 | 52 | 1015.6 |
| 20260902192004 | 80 | 195 | 5.0 | 15.0 | 0.00 | 0.62 | 0.62 | 53 | 1015.6 |
| 20260902191503 | 80 | 196 | 6.0 | 15.0 | 0.00 | 0.62 | 0.62 | 52 | 1015.5 |
| 20260902191003 | 80 | 200 | 6.0 | 12.0 | 0.00 | 0.62 | 0.62 | 52 | 1015.6 |
| 20260902190503 | 80 | 188 | 6.0 | 12.0 | 0.00 | 0.62 | 0.62 | 51 | 1015.5 |
| 20260902190003 | 80 | 173 | 4.0 | 10.0 | 0.00 | 0.62 | 0.62 | 52 | 1015.3 |
| 20260902185503 | 80 | 149 | 4.0 | 9.0 | 0.00 | 0.62 | 0.62 | 53 | 1015.2 |
| 20260902185213 | 80 | 149 | 4.0 | 9.0 | 0.00 | 0.62 | 0.62 | 53 | 1015.0 |
| 20260902184503 | 80 | 169 | 4.0 | 10.0 | 0.00 | 0.62 | 0.62 | 51 | 1015.2 |
| 20260902184213 | 80 | 180 | 4.0 | 10.0 | 0.00 | 0.62 | 0.62 | 51 | 1015.1 |
| 20260902183503 | 81 | 177 | 4.0 | 9.0 | 0.00 | 0.62 | 0.62 | 50 | 1015.4 |
| 20260902183003 | 81 | 179 | 4.0 | 10.0 | 0.00 | 0.62 | 0.62 | 49 | 1015.5 |
| 20260902182713 | 81 | 178 | 4.0 | 10.0 | 0.00 | 0.62 | 0.62 | 49 | 1015.6 |
| 20260902182004 | 81 | 200 | 3.0 | 7.0 | 0.00 | 0.62 | 0.62 | 49 | 1015.7 |
| 20260902181714 | 82 | 239 | 2.0 | 6.0 | 0.00 | 0.62 | 0.62 | 49 | 1016.0 |
| 20260902181003 | 81 | 223 | 2.0 | 8.0 | 0.00 | 0.62 | 0.62 | 49 | 1016.2 |
| 20260902180713 | 81 | 242 | 3.0 | 13.0 | 0.00 | 0.62 | 0.62 | 51 | 1016.4 |
| 20260902180006 | 81 | 251 | 5.0 | 13.0 | 0.00 | 0.62 | 0.62 | 48 | 1016.4 |
| 20260902175503 | 82 | 216 | 5.0 | 13.0 | 0.00 | 0.62 | 0.62 | 47 | 1016.5 |
| 20260902175003 | 82 | 185 | 5.0 | 13.0 | 0.00 | 0.62 | 0.62 | 47 | 1016.5 |
| 20260902174713 | 82 | 182 | 5.0 | 13.0 | 0.00 | 0.62 | 0.62 | 47 | 1016.3 |
| 20260902174212 | 82 | 175 | 5.0 | 11.0 | 0.00 | 0.62 | 0.62 | 48 | 1016.3 |
| 20260902173503 | 82 | 186 | 5.0 | 11.0 | 0.00 | 0.62 | 0.62 | 48 | 1016.2 |
| 20260902173212 | 82 | 175 | 5.0 | 11.0 | 0.00 | 0.62 | 0.62 | 47 | 1016.1 |
| 20260902172503 | 82 | 157 | 5.0 | 10.0 | 0.00 | 0.62 | 0.62 | 47 | 1016.1 |
| 20260902172003 | 82 | 181 | 4.0 | 10.0 | 0.00 | 0.62 | 0.62 | 47 | 1016.2 |
| 20260902171503 | 81 | 171 | 5.0 | 11.0 | 0.00 | 0.62 | 0.62 | 48 | 1016.1 |
| 20260902171003 | 81 | 168 | 5.0 | 11.0 | 0.00 | 0.62 | 0.62 | 48 | 1016.1 |
| 20260902170503 | 81 | 198 | 5.0 | 10.0 | 0.00 | 0.62 | 0.62 | 46 | 1016.1 |
| 20260902170003 | 81 | 210 | 4.0 | 10.0 | 0.00 | 0.62 | 0.62 | 46 | 1016.3 |
| 20260902165503 | 81 | 187 | 4.0 | 11.0 | 0.00 | 0.62 | 0.62 | 47 | 1016.4 |
| 20260902165003 | 80 | 182 | 5.0 | 11.0 | 0.00 | 0.62 | 0.62 | 49 | 1016.2 |
| 20260902164503 | 80 | 214 | 5.0 | 10.0 | 0.00 | 0.62 | 0.62 | 47 | 1016.4 |
| 20260902164003 | 81 | 198 | 5.0 | 10.0 | 0.00 | 0.62 | 0.62 | 48 | 1016.4 |
| 20260902163503 | 80 | 198 | 5.0 | 10.0 | 0.00 | 0.62 | 0.62 | 49 | 1016.5 |
| 20260902163003 | 80 | 213 | 4.0 | 10.0 | 0.00 | 0.62 | 0.62 | 47 | 1016.5 |
| 20260902162713 | 80 | 207 | 4.0 | 11.0 | 0.00 | 0.62 | 0.62 | 48 | 1016.4 |
| 20260902162004 | 79 | 204 | 5.0 | 11.0 | 0.00 | 0.62 | 0.62 | 49 | 1016.5 |
| 20260902161503 | 79 | 200 | 5.0 | 11.0 | 0.00 | 0.62 | 0.62 | 49 | 1016.5 |
| 20260902161003 | 79 | 197 | 5.0 | 11.0 | 0.00 | 0.62 | 0.62 | 49 | 1016.7 |
| 20260902160713 | 79 | 205 | 4.0 | 11.0 | 0.00 | 0.62 | 0.62 | 51 | 1016.6 |
| 20260902160004 | 78 | 205 | 4.0 | 11.0 | 0.00 | 0.62 | 0.62 | 52 | 1016.7 |
| 20260902155503 | 78 | 197 | 5.0 | 11.0 | 0.00 | 0.63 | 0.62 | 51 | 1016.7 |
| 20260902155003 | 78 | 190 | 5.0 | 12.0 | 0.00 | 0.63 | 0.62 | 52 | 1016.6 |
| 20260902154503 | 77 | 191 | 5.0 | 12.0 | 0.00 | 0.63 | 0.62 | 54 | 1016.6 |
| 20260902154003 | 76 | 201 | 4.0 | 12.0 | 0.00 | 0.63 | 0.62 | 54 | 1016.6 |
| 20260902153503 | 76 | 202 | 4.0 | 12.0 | 0.00 | 0.63 | 0.62 | 56 | 1016.5 |
| 20260902153003 | 75 | 194 | 4.0 | 10.0 | 0.00 | 0.63 | 0.62 | 56 | 1016.4 |
| 20260902152503 | 75 | 192 | 3.0 | 10.0 | 0.00 | 0.63 | 0.62 | 57 | 1016.4 |
| 20260902152003 | 74 | 203 | 3.0 | 7.0 | 0.00 | 0.63 | 0.62 | 58 | 1016.4 |
| 20260902151503 | 74 | 200 | 4.0 | 10.0 | 0.00 | 0.63 | 0.62 | 60 | 1016.6 |
| 20260902151003 | 73 | 195 | 4.0 | 10.0 | 0.00 | 0.63 | 0.62 | 60 | 1016.5 |
| 20260902150503 | 73 | 192 | 3.0 | 8.0 | 0.00 | 0.63 | 0.62 | 62 | 1016.4 |
| 20260902150213 | 73 | 194 | 3.0 | 8.0 | 0.01 | 0.63 | 0.62 | 63 | 1016.3 |
| 20260902145503 | 72 | 202 | 4.0 | 8.0 | 0.02 | 0.63 | 0.62 | 64 | 1016.2 |
| 20260902145003 | 71 | 206 | 3.0 | 6.0 | 0.03 | 0.63 | 0.62 | 65 | 1016.2 |
| 20260902144503 | 70 | 205 | 4.0 | 10.0 | 0.03 | 0.63 | 0.62 | 65 | 1016.5 |
| 20260902144003 | 70 | 208 | 4.0 | 10.0 | 0.03 | 0.63 | 0.62 | 64 | 1016.6 |
| 20260902143503 | 69 | 225 | 3.0 | 9.0 | 0.03 | 0.63 | 0.62 | 63 | 1016.9 |
| 20260902143003 | 69 | 239 | 3.0 | 10.0 | 0.09 | 0.63 | 0.62 | 63 | 1017.0 |
| 20260902142503 | 69 | 242 | 3.0 | 10.0 | 0.29 | 0.63 | 0.62 | 63 | 1017.0 |
| 20260902142003 | 68 | 253 | 2.0 | 7.0 | 0.53 | 0.63 | 0.62 | 64 | 1016.9 |
| 20260902141503 | 68 | 243 | 3.0 | 7.0 | 0.61 | 0.63 | 0.62 | 64 | 1016.6 |
| 20260902141213 | 68 | 224 | 3.0 | 6.0 | 0.61 | 0.63 | 0.62 | 63 | 1016.7 |
| 20260902140503 | 67 | 189 | 3.0 | 7.0 | 0.62 | 0.63 | 0.62 | 62 | 1016.6 |
| 20260902140003 | 67 | 186 | 3.0 | 7.0 | 0.61 | 0.62 | 0.61 | 62 | 1017.1 |
| 20260902135714 | 67 | 207 | 3.0 | 9.0 | 0.60 | 0.61 | 0.60 | 61 | 1017.4 |
| 20260902135003 | 67 | 255 | 6.0 | 15.0 | 0.59 | 0.60 | 0.59 | 61 | 1017.5 |
| 20260902134503 | 67 | 257 | 6.0 | 15.0 | 0.59 | 0.60 | 0.59 | 61 | 1017.7 |
| 20260902134003 | 67 | 264 | 5.0 | 14.0 | 0.59 | 0.60 | 0.59 | 61 | 1017.8 |
| 20260902133503 | 68 | 265 | 9.0 | 25.0 | 0.59 | 0.60 | 0.59 | 61 | 1018.4 |
| 20260902133003 | 68 | 262 | 12.0 | 25.0 | 0.53 | 0.54 | 0.54 | 61 | 1018.6 |
| 20260902132503 | 70 | 252 | 9.0 | 25.0 | 0.33 | 0.34 | 0.33 | 61 | 1018.4 |
| 20260902132003 | 71 | 232 | 5.0 | 24.0 | 0.09 | 0.10 | 0.09 | 62 | 1018.1 |
| 20260902131503 | 71 | 201 | 4.0 | 10.0 | 0.01 | 0.02 | 0.01 | 61 | 1017.6 |
| 20260902131003 | 71 | 195 | 4.0 | 10.0 | 0.00 | 0.01 | 0.00 | 61 | 1017.0 |
| 20260902130503 | 71 | 198 | 4.0 | 9.0 | 0.00 | 0.01 | 0.00 | 61 | 1017.5 |
| 20260902130003 | 71 | 194 | 4.0 | 8.0 | 0.00 | 0.01 | 0.00 | 61 | 1017.3 |
| 20260902125714 | 71 | 188 | 3.0 | 7.0 | 0.00 | 0.01 | 0.00 | 61 | 1017.0 |
| 20260902125003 | 71 | 171 | 4.0 | 7.0 | 0.00 | 0.01 | 0.00 | 61 | 1016.7 |
| 20260902124713 | 71 | 170 | 4.0 | 7.0 | 0.00 | 0.01 | 0.00 | 61 | 1016.8 |
| 20260902124003 | 71 | 191 | 4.0 | 7.0 | 0.00 | 0.01 | 0.00 | 61 | 1016.9 |
| 20260902123713 | 71 | 195 | 4.0 | 7.0 | 0.00 | 0.01 | 0.00 | 62 | 1017.1 |
| 20260902123003 | 71 | 218 | 3.0 | 7.0 | 0.00 | 0.01 | 0.00 | 62 | 1017.2 |
| 20260902122713 | 71 | 243 | 2.0 | 7.0 | 0.00 | 0.01 | 0.00 | 62 | 1017.3 |
| 20260902122212 | 71 | 224 | 3.0 | 6.0 | 0.00 | 0.01 | 0.00 | 63 | 1017.0 |
| 20260902121503 | 71 | 174 | 4.0 | 9.0 | 0.00 | 0.01 | 0.00 | 63 | 1015.8 |
| 20260902121003 | 71 | 177 | 3.0 | 9.0 | 0.00 | 0.01 | 0.00 | 63 | 1015.8 |
| 20260902120713 | 71 | 178 | 3.0 | 9.0 | 0.00 | 0.01 | 0.00 | 63 | 1015.8 |
| 20260902120003 | 71 | 190 | 2.0 | 5.0 | 0.00 | 0.01 | 0.00 | 64 | 1016.1 |
| 20260902115503 | 70 | 204 | 1.0 | 5.0 | 0.00 | 0.01 | 0.00 | 64 | 1016.2 |
| 20260902115214 | 70 | 207 | 2.0 | 6.0 | 0.00 | 0.01 | 0.00 | 64 | 1016.2 |
| 20260902114503 | 70 | 189 | 3.0 | 7.0 | 0.00 | 0.01 | 0.00 | 64 | 1015.7 |
| 20260902114214 | 70 | 183 | 2.0 | 7.0 | 0.00 | 0.01 | 0.00 | 64 | 1015.6 |
| 20260902113713 | 70 | 176 | 2.0 | 7.0 | 0.00 | 0.01 | 0.00 | 64 | 1015.8 |
| 20260902113003 | 70 | 186 | 2.0 | 7.0 | 0.00 | 0.01 | 0.00 | 64 | 1015.8 |
| 20260902112503 | 70 | 201 | 1.0 | 5.0 | 0.00 | 0.01 | 0.00 | 64 | 1015.5 |
| 20260902112003 | 70 | 225 | 1.0 | 5.0 | 0.00 | 0.01 | 0.00 | 64 | 1015.6 |
| 20260902111503 | 70 | 238 | 2.0 | 5.0 | 0.00 | 0.01 | 0.00 | 65 | 1015.7 |
| 20260902111003 | 70 | 236 | 1.0 | 4.0 | 0.00 | 0.01 | 0.00 | 65 | 1015.9 |
| 20260902110503 | 70 | 238 | 1.0 | 3.0 | 0.00 | 0.01 | 0.00 | 65 | 1015.9 |
| 20260902110005 | 70 | 236 | 1.0 | 3.0 | 0.00 | 0.01 | 0.00 | 64 | 1016.0 |
| 20260902105503 | 70 | 232 | 0.0 | 2.0 | 0.00 | 0.01 | 0.00 | 64 | 1015.9 |
| 20260902105003 | 70 | 231 | 0.0 | 2.0 | 0.00 | 0.01 | 0.00 | 64 | 1016.0 |
| 20260902104503 | 70 | 231 | 0.0 | 2.0 | 0.00 | 0.01 | 0.00 | 64 | 1015.9 |
| 20260902104003 | 70 | 231 | 0.0 | 2.0 | 0.00 | 0.01 | 0.00 | 64 | 1016.0 |
| 20260902103503 | 70 | 232 | 1.0 | 3.0 | 0.00 | 0.01 | 0.00 | 64 | 1015.9 |
| 20260902103003 | 69 | 233 | 1.0 | 3.0 | 0.00 | 0.01 | 0.00 | 64 | 1015.6 |
| 20260902102503 | 70 | 235 | 0.0 | 2.0 | 0.00 | 0.01 | 0.00 | 64 | 1015.6 |
| 20260902102003 | 70 | 0 | 0.0 | 0.0 | 0.00 | 0.01 | 0.00 | 64 | 1015.6 |
| 20260902101503 | 70 | 235 | 0.0 | 1.0 | 0.00 | 0.01 | 0.00 | 64 | 1015.7 |
| 20260902101003 | 70 | 235 | 0.0 | 2.0 | 0.00 | 0.01 | 0.00 | 64 | 1015.7 |
| 20260902100712 | 70 | 235 | 0.0 | 2.0 | 0.00 | 0.01 | 0.00 | 63 | 1015.7 |
| 20260902100213 | 70 | 235 | 0.0 | 2.0 | 0.00 | 0.01 | 0.00 | 63 | 1015.8 |
| 20260902095503 | 70 | 236 | 1.0 | 3.0 | 0.00 | 0.01 | 0.00 | 64 | 1016.0 |
| 20260902095003 | 70 | 240 | 0.0 | 3.0 | 0.00 | 0.01 | 0.00 | 64 | 1016.2 |
| 20260902094503 | 70 | 255 | 0.0 | 4.0 | 0.00 | 0.01 | 0.00 | 64 | 1016.3 |
| 20260902094003 | 70 | 255 | 0.0 | 4.0 | 0.00 | 0.01 | 0.00 | 64 | 1016.3 |
| 20260902093714 | 70 | 227 | 0.0 | 4.0 | 0.00 | 0.01 | 0.00 | 64 | 1016.4 |
| 20260902093213 | 70 | 209 | 1.0 | 3.0 | 0.00 | 0.01 | 0.00 | 64 | 1016.3 |
| 20260902092503 | 71 | 221 | 0.0 | 3.0 | 0.00 | 0.01 | 0.00 | 63 | 1016.1 |
| 20260902092213 | 71 | 235 | 0.0 | 2.0 | 0.00 | 0.03 | 0.00 | 63 | 1016.3 |
| 20260902091503 | 71 | 240 | 0.0 | 1.0 | 0.00 | 0.03 | 0.00 | 63 | 1016.2 |
| 20260902091213 | 71 | 238 | 1.0 | 4.0 | 0.00 | 0.03 | 0.00 | 63 | 1016.2 |
| 20260902090503 | 71 | 230 | 1.0 | 4.0 | 0.00 | 0.03 | 0.00 | 63 | 1016.2 |
| 20260902090213 | 71 | 232 | 1.0 | 4.0 | 0.00 | 0.03 | 0.00 | 63 | 1016.2 |
| 20260902085503 | 71 | 201 | 2.0 | 7.0 | 0.00 | 0.03 | 0.00 | 63 | 1016.3 |
| 20260902085003 | 71 | 192 | 2.0 | 7.0 | 0.00 | 0.03 | 0.00 | 63 | 1016.3 |
| 20260902084714 | 71 | 192 | 2.0 | 5.0 | 0.00 | 0.03 | 0.00 | 63 | 1016.6 |
| 20260902084003 | 71 | 203 | 2.0 | 7.0 | 0.00 | 0.03 | 0.00 | 63 | 1016.5 |
| 20260902083503 | 71 | 235 | 2.0 | 7.0 | 0.00 | 0.03 | 0.00 | 63 | 1016.7 |
| 20260902083003 | 71 | 249 | 2.0 | 6.0 | 0.00 | 0.03 | 0.00 | 63 | 1016.7 |
| 20260902082714 | 71 | 242 | 2.0 | 6.0 | 0.00 | 0.03 | 0.00 | 64 | 1016.7 |
| 20260902082003 | 71 | 219 | 1.0 | 6.0 | 0.00 | 0.03 | 0.00 | 64 | 1016.7 |
| 20260902081503 | 71 | 210 | 1.0 | 4.0 | 0.00 | 0.03 | 0.00 | 64 | 1016.6 |
| 20260902081003 | 71 | 223 | 2.0 | 6.0 | 0.00 | 0.03 | 0.00 | 63 | 1016.5 |
| 20260902080503 | 71 | 241 | 2.0 | 8.0 | 0.00 | 0.03 | 0.00 | 64 | 1016.4 |
| 20260902080004 | 71 | 229 | 2.0 | 8.0 | 0.00 | 0.03 | 0.00 | 64 | 1016.6 |
| 20260902075503 | 71 | 195 | 2.0 | 5.0 | 0.00 | 0.03 | 0.00 | 64 | 1016.6 |
| 20260902075003 | 71 | 195 | 2.0 | 5.0 | 0.00 | 0.03 | 0.00 | 63 | 1016.6 |
| 20260902074503 | 71 | 210 | 2.0 | 4.0 | 0.00 | 0.03 | 0.00 | 64 | 1016.7 |
| 20260902074213 | 71 | 228 | 2.0 | 4.0 | 0.00 | 0.03 | 0.00 | 64 | 1016.8 |
| 20260902073503 | 71 | 268 | 1.0 | 4.0 | 0.00 | 0.03 | 0.00 | 64 | 1016.8 |
| 20260902073003 | 71 | 269 | 1.0 | 3.0 | 0.00 | 0.03 | 0.00 | 64 | 1016.8 |
| 20260902072503 | 71 | 249 | 1.0 | 4.0 | 0.00 | 0.03 | 0.00 | 64 | 1016.7 |
| 20260902072003 | 71 | 207 | 2.0 | 5.0 | 0.00 | 0.03 | 0.00 | 64 | 1016.7 |
| 20260902071503 | 72 | 197 | 3.0 | 6.0 | 0.00 | 0.03 | 0.00 | 64 | 1016.8 |
| 20260902071003 | 72 | 190 | 4.0 | 9.0 | 0.00 | 0.03 | 0.00 | 64 | 1016.7 |
| 20260902070503 | 72 | 181 | 4.0 | 9.0 | 0.00 | 0.03 | 0.00 | 64 | 1016.7 |
| 20260902070003 | 72 | 176 | 4.0 | 9.0 | 0.00 | 0.03 | 0.00 | 64 | 1016.6 |
| 20260902065503 | 72 | 169 | 4.0 | 10.0 | 0.00 | 0.03 | 0.00 | 64 | 1016.8 |
| 20260902065003 | 71 | 176 | 3.0 | 10.0 | 0.00 | 0.03 | 0.00 | 64 | 1016.8 |
| 20260902064503 | 71 | 201 | 2.0 | 5.0 | 0.00 | 0.03 | 0.00 | 65 | 1016.8 |
| 20260902064212 | 71 | 210 | 2.0 | 5.0 | 0.00 | 0.03 | 0.00 | 65 | 1016.8 |
| 20260902063503 | 71 | 218 | 2.0 | 5.0 | 0.00 | 0.03 | 0.00 | 65 | 1016.9 |
| 20260902063003 | 71 | 212 | 2.0 | 5.0 | 0.00 | 0.03 | 0.00 | 64 | 1017.0 |
| 20260902062503 | 71 | 205 | 2.0 | 6.0 | 0.00 | 0.03 | 0.00 | 64 | 1017.0 |
| 20260902062003 | 71 | 206 | 2.0 | 6.0 | 0.00 | 0.03 | 0.00 | 64 | 1017.1 |
| 20260902061003 | 71 | 218 | 1.0 | 5.0 | 0.00 | 0.03 | 0.00 | 64 | 1017.2 |
| 20260902060503 | 71 | 206 | 0.0 | 5.0 | 0.00 | 0.03 | 0.00 | 64 | 1017.3 |
| 20260902060003 | 71 | 205 | 1.0 | 5.0 | 0.00 | 0.03 | 0.00 | 64 | 1017.4 |
| 20260902055503 | 71 | 214 | 2.0 | 5.0 | 0.00 | 0.03 | 0.00 | 64 | 1017.4 |
| 20260902055003 | 71 | 220 | 1.0 | 3.0 | 0.00 | 0.09 | 0.00 | 64 | 1017.5 |
| 20260902054503 | 71 | 222 | 1.0 | 3.0 | 0.00 | 0.11 | 0.00 | 64 | 1017.3 |
| 20260902054003 | 71 | 218 | 1.0 | 3.0 | 0.00 | 0.12 | 0.00 | 64 | 1017.2 |
| 20260902053713 | 71 | 209 | 1.0 | 3.0 | 0.00 | 0.12 | 0.00 | 64 | 1017.2 |
| 20260902053003 | 71 | 184 | 1.0 | 3.0 | 0.00 | 0.12 | 0.00 | 64 | 1017.3 |
| 20260902052503 | 71 | 183 | 1.0 | 3.0 | 0.00 | 0.12 | 0.00 | 64 | 1017.3 |
| 20260902052003 | 71 | 178 | 1.0 | 3.0 | 0.00 | 0.12 | 0.00 | 64 | 1017.2 |
| 20260902051503 | 71 | 174 | 1.0 | 3.0 | 0.00 | 0.12 | 0.00 | 64 | 1017.2 |
| 20260902051003 | 71 | 167 | 1.0 | 5.0 | 0.00 | 0.12 | 0.00 | 64 | 1017.2 |
| 20260902050712 | 71 | 165 | 1.0 | 5.0 | 0.00 | 0.12 | 0.00 | 64 | 1017.2 |
| 20260902050006 | 71 | 157 | 2.0 | 7.0 | 0.00 | 0.12 | 0.00 | 64 | 1017.0 |
| 20260902045503 | 71 | 161 | 2.0 | 7.0 | 0.00 | 0.12 | 0.00 | 64 | 1017.2 |
| 20260902045003 | 71 | 171 | 0.0 | 5.0 | 0.00 | 0.12 | 0.00 | 64 | 1017.2 |
| 20260902044503 | 71 | 0 | 0.0 | 0.0 | 0.00 | 0.12 | 0.00 | 64 | 1017.0 |
| 20260902044003 | 71 | 0 | 0.0 | 0.0 | 0.00 | 0.12 | 0.00 | 64 | 1017.1 |
| 20260902043503 | 71 | 0 | 0.0 | 0.0 | 0.00 | 0.12 | 0.00 | 64 | 1017.0 |
| 20260902043003 | 71 | 0 | 0.0 | 0.0 | 0.00 | 0.12 | 0.00 | 64 | 1017.0 |
| 20260902042503 | 71 | 0 | 0.0 | 0.0 | 0.00 | 0.12 | 0.00 | 64 | 1017.0 |
| 20260902042003 | 71 | 326 | 0.0 | 3.0 | 0.00 | 0.12 | 0.00 | 64 | 1016.9 |
| 20260902041504 | 71 | 327 | 1.0 | 3.0 | 0.00 | 0.12 | 0.00 | 64 | 1017.0 |
| 20260902041213 | 71 | 328 | 0.0 | 3.0 | 0.00 | 0.12 | 0.00 | 64 | 1016.9 |
| 20260902040503 | 71 | 329 | 1.0 | 3.0 | 0.00 | 0.12 | 0.00 | 64 | 1016.9 |
| 20260902040003 | 71 | 341 | 1.0 | 4.0 | 0.00 | 0.12 | 0.00 | 64 | 1016.8 |
| 20260902035714 | 71 | 344 | 1.0 | 4.0 | 0.00 | 0.12 | 0.12 | 64 | 1016.8 |
| 20260902035213 | 71 | 355 | 0.0 | 4.0 | 0.00 | 0.12 | 0.12 | 64 | 1016.7 |
| 20260902034712 | 71 | 0 | 0.0 | 0.0 | 0.00 | 0.12 | 0.12 | 64 | 1016.7 |
| 20260902034213 | 71 | 0 | 0.0 | 0.0 | 0.00 | 0.12 | 0.12 | 64 | 1016.7 |
| 20260902033503 | 71 | 0 | 0.0 | 0.0 | 0.00 | 0.12 | 0.12 | 64 | 1016.6 |
| 20260902033003 | 71 | 0 | 0.0 | 0.0 | 0.00 | 0.12 | 0.12 | 64 | 1016.7 |
| 20260902032714 | 71 | 0 | 0.0 | 0.0 | 0.00 | 0.12 | 0.12 | 64 | 1016.7 |
| 20260902032003 | 71 | 0 | 0.0 | 0.0 | 0.00 | 0.12 | 0.12 | 64 | 1016.7 |
| 20260902031503 | 71 | 0 | 0.0 | 0.0 | 0.00 | 0.12 | 0.12 | 64 | 1016.8 |
| 20260902031213 | 71 | 0 | 0.0 | 0.0 | 0.00 | 0.12 | 0.12 | 64 | 1016.7 |
| 20260902030714 | 71 | 0 | 0.0 | 0.0 | 0.00 | 0.12 | 0.12 | 64 | 1016.7 |
| 20260902030003 | 71 | 0 | 0.0 | 0.0 | 0.00 | 0.12 | 0.12 | 64 | 1017.0 |
| 20260902025503 | 71 | 0 | 0.0 | 0.0 | 0.00 | 0.12 | 0.12 | 64 | 1016.9 |
| 20260902025003 | 71 | 0 | 0.0 | 0.0 | 0.00 | 0.12 | 0.12 | 64 | 1016.9 |
| 20260902024503 | 71 | 0 | 0.0 | 0.0 | 0.00 | 0.12 | 0.12 | 63 | 1016.8 |
| 20260902024003 | 71 | 0 | 0.0 | 0.0 | 0.00 | 0.12 | 0.12 | 63 | 1016.8 |
| 20260902023503 | 71 | 0 | 0.0 | 0.0 | 0.00 | 0.12 | 0.12 | 63 | 1016.9 |
| 20260902023003 | 71 | 0 | 0.0 | 0.0 | 0.00 | 0.12 | 0.12 | 63 | 1016.9 |
| 20260902022503 | 72 | 0 | 0.0 | 0.0 | 0.00 | 0.12 | 0.12 | 64 | 1017.0 |
| 20260902022003 | 72 | 0 | 0.0 | 0.0 | 0.00 | 0.12 | 0.12 | 64 | 1017.1 |
| 20260902021503 | 71 | 0 | 0.0 | 0.0 | 0.00 | 0.12 | 0.12 | 64 | 1017.0 |
| 20260902021003 | 71 | 0 | 0.0 | 0.0 | 0.00 | 0.12 | 0.12 | 64 | 1017.4 |
| 20260902020503 | 71 | 0 | 0.0 | 0.0 | 0.00 | 0.12 | 0.12 | 63 | 1017.0 |
| 20260902020003 | 71 | 0 | 0.0 | 0.0 | 0.00 | 0.12 | 0.12 | 63 | 1016.9 |